Time;durP1;ratioP1;P1;durP2;ratioP2;P2;SDS_P1;SDS_P2;PMS_P1;PMS_P2;Temp;Humidity;BMP_temperature;BMP_pressure;BME280_temperature;BME280_humidity;BME280_pressure;Samples;Min_cycle;Max_cycle;Signal;HPM_P1;HPM_P2
2022/01/10 00:00:10;;;;;;;5.20;2.08;;;2.20;99.90;;;1.48;100.00;96574.44;5035144;28;20378;-39
2022/01/10 00:02:36;;;;;;;4.47;2.10;;;2.30;99.90;;;1.57;100.00;96582.09;5033111;28;20689;-35
2022/01/10 00:05:02;;;;;;;5.57;2.17;;;2.30;99.90;;;1.54;100.00;96571.75;5031750;28;20887;-39
2022/01/10 00:07:27;;;;;;;4.95;1.85;;;2.40;99.90;;;1.64;100.00;96583.72;5035860;28;20717;-34
2022/01/10 00:09:53;;;;;;;3.60;1.88;;;2.40;99.90;;;1.66;100.00;96584.56;5040998;28;20037;-36
2022/01/10 00:12:19;;;;;;;6.25;2.25;;;2.40;99.90;;;1.61;100.00;96578.56;5035218;28;20045;-40
2022/01/10 00:14:45;;;;;;;5.35;2.28;;;2.40;99.90;;;1.66;100.00;96591.50;5022418;28;20029;-39
2022/01/10 00:17:10;;;;;;;3.40;2.00;;;2.40;99.90;;;1.63;100.00;96595.00;5035360;28;20025;-35
2022/01/10 00:19:36;;;;;;;4.43;1.98;;;2.40;99.90;;;1.63;100.00;96597.59;5034152;28;20033;-39
2022/01/10 00:22:03;;;;;;;4.57;2.10;;;2.40;99.90;;;1.62;100.00;96595.88;5035301;28;20117;-37
2022/01/10 00:24:29;;;;;;;5.78;2.10;;;2.40;99.90;;;1.59;100.00;96598.53;5031237;28;20033;-38
2022/01/10 00:26:54;;;;;;;7.70;2.30;;;2.40;99.90;;;1.55;100.00;96596.84;5034194;28;20083;-38
2022/01/10 00:29:20;;;;;;;4.72;2.08;;;2.30;99.90;;;1.53;100.00;96599.47;5039051;28;20032;-37
2022/01/10 00:31:46;;;;;;;5.07;2.00;;;2.30;99.90;;;1.49;100.00;96596.94;5032621;28;20497;-36
2022/01/10 00:34:12;;;;;;;3.60;1.85;;;2.30;99.90;;;1.48;100.00;96597.81;5035007;28;20301;-38
2022/01/10 00:36:37;;;;;;;6.30;1.98;;;2.20;99.90;;;1.45;100.00;96598.72;5030860;28;20025;-40
2022/01/10 00:39:04;;;;;;;6.15;2.05;;;2.20;99.90;;;1.43;100.00;96608.28;5031665;28;20025;-40
2022/01/10 00:41:30;;;;;;;3.47;2.05;;;2.20;99.90;;;1.43;100.00;96607.41;5033979;28;20043;-39
2022/01/10 00:43:56;;;;;;;3.72;1.92;;;2.20;99.90;;;1.41;100.00;96599.63;5032824;28;20458;-36
2022/01/10 00:46:22;;;;;;;6.28;2.03;;;2.20;99.90;;;1.41;100.00;96609.19;5034363;28;20043;-40
2022/01/10 00:48:48;;;;;;;2.58;1.75;;;2.20;99.90;;;1.38;100.00;96610.06;5031348;28;20547;-39
2022/01/10 00:51:14;;;;;;;6.47;2.30;;;2.20;99.90;;;1.37;100.00;96617.91;5034834;28;20114;-39
2022/01/10 00:53:40;;;;;;;7.88;2.08;;;2.20;99.90;;;1.38;100.00;96622.19;5032741;28;20132;-39
2022/01/10 00:56:08;;;;;;;3.13;1.70;;;2.10;99.90;;;1.38;100.00;96614.41;5033664;28;20296;-41
2022/01/10 00:58:36;;;;;;;3.13;1.40;;;2.10;99.90;;;1.34;100.00;96617.03;5031463;28;20079;-40
2022/01/10 01:01:03;;;;;;;6.00;1.95;;;2.20;99.90;;;1.37;100.00;96626.56;5031421;28;20505;-38
2022/01/10 01:03:29;;;;;;;4.28;1.80;;;2.10;99.90;;;1.32;100.00;96618.81;5033583;28;20410;-38
2022/01/10 01:05:55;;;;;;;5.25;1.90;;;2.10;99.90;;;1.39;100.00;96631.72;5033079;28;20041;-37
2022/01/10 01:08:20;;;;;;;4.15;1.48;;;2.10;99.90;;;1.37;100.00;96630.91;5036694;28;20120;-35
2022/01/10 01:24:03;;;;;;;9.02;1.88;;;2.10;99.90;;;1.37;100.00;96656.88;5033803;28;20044;-40
2022/01/10 01:26:51;;;;;;;6.85;1.98;;;2.10;99.90;;;1.37;100.00;96662.06;5017099;28;20029;-37
2022/01/10 01:29:22;;;;;;;4.95;1.70;;;2.10;99.90;;;1.38;100.00;96667.22;5039999;28;20114;-38
2022/01/10 01:31:48;;;;;;;4.32;1.65;;;2.10;99.90;;;1.31;100.00;96683.75;5035206;28;20463;-36
2022/01/10 01:34:16;;;;;;;5.95;1.73;;;2.10;99.90;;;1.29;100.00;96683.81;5035591;28;20046;-36
2022/01/10 01:36:50;;;;;;;3.65;1.55;;;2.10;99.90;;;1.28;100.00;96681.22;5033303;28;20378;-36
2022/01/10 01:39:23;;;;;;;3.67;1.92;;;2.10;99.90;;;1.27;100.00;96690.72;5032231;28;20399;-39
2022/01/10 01:42:18;;;;;;;3.70;1.50;;;2.10;99.90;;;1.27;100.00;96695.94;5032027;28;20033;-38
2022/01/10 01:44:48;;;;;;;4.13;1.75;;;2.00;99.90;;;1.19;100.00;96699.53;5030698;28;20118;-38
2022/01/10 01:47:14;;;;;;;4.53;1.70;;;2.00;99.90;;;1.17;100.00;96696.06;5034996;28;20033;-38
2022/01/10 01:49:39;;;;;;;4.90;1.63;;;1.90;99.90;;;1.13;100.00;96695.22;5035127;28;20048;-35
2022/01/10 01:52:05;;;;;;;3.92;1.75;;;1.90;99.90;;;1.13;100.00;96709.09;5038186;28;20095;-40
2022/01/10 01:54:31;;;;;;;5.93;1.73;;;1.90;99.90;;;1.12;100.00;96707.34;5039946;28;20037;-38
2022/01/10 01:56:57;;;;;;;3.88;1.67;;;1.90;99.90;;;1.11;100.00;96707.38;5039968;28;20028;-37
2022/01/10 01:59:23;;;;;;;4.28;2.08;;;1.90;99.90;;;1.08;100.00;96716.06;5019708;28;20064;-43
2022/01/10 02:01:49;;;;;;;4.22;1.90;;;1.90;99.90;;;1.07;100.00;96714.34;5030811;28;21177;-39
2022/01/10 02:04:14;;;;;;;5.25;1.80;;;1.90;99.90;;;1.09;100.00;96712.56;5034970;28;20163;-37
2022/01/10 02:06:40;;;;;;;4.20;1.60;;;1.90;99.90;;;1.11;100.00;96720.34;5034920;28;20033;-37
2022/01/10 02:09:06;;;;;;;6.22;2.00;;;1.90;99.90;;;1.06;100.00;96704.84;5033823;28;20557;-40
2022/01/10 02:11:32;;;;;;;6.70;1.80;;;1.90;99.90;;;1.13;100.00;96722.06;5034324;28;20024;-37
2022/01/10 02:13:59;;;;;;;3.80;1.60;;;1.90;99.90;;;1.18;100.00;96722.00;5031294;28;20442;-38
2022/01/10 02:16:34;;;;;;;6.72;2.35;;;1.90;99.90;;;1.20;100.00;96732.38;5033804;28;20036;-39
2022/01/10 02:19:00;;;;;;;4.20;2.10;;;2.00;99.90;;;1.22;100.00;96725.44;5028473;28;20040;-37
2022/01/10 02:21:25;;;;;;;2.95;1.60;;;2.00;99.90;;;1.23;100.00;96730.63;5036508;28;20029;-37
2022/01/10 02:23:51;;;;;;;4.30;1.70;;;2.00;99.90;;;1.21;100.00;96726.31;5032622;28;20033;-41
2022/01/10 02:26:17;;;;;;;3.67;1.50;;;2.00;99.90;;;1.22;100.00;96728.91;5031075;28;20037;-37
2022/01/10 02:28:43;;;;;;;6.00;1.60;;;2.00;99.90;;;1.23;100.00;96734.97;5030203;28;20076;-41
2022/01/10 02:31:09;;;;;;;6.57;2.10;;;2.00;99.90;;;1.25;100.00;96730.59;5032127;28;20128;-36
2022/01/10 02:33:35;;;;;;;6.93;2.42;;;2.00;99.90;;;1.25;100.00;96738.41;5029834;28;20708;-38
2022/01/10 02:38:49;;;;;;;3.97;1.70;;;2.00;99.90;;;1.23;100.00;96742.75;5032210;28;20524;-37
2022/01/10 02:41:24;;;;;;;5.70;1.88;;;2.00;99.90;;;1.24;100.00;96760.03;5030944;28;20033;-38
2022/01/10 02:43:52;;;;;;;5.53;1.90;;;2.00;99.90;;;1.23;100.00;96754.00;5034080;28;20079;-37
2022/01/10 02:46:18;;;;;;;3.72;2.03;;;2.00;99.90;;;1.23;100.00;96751.41;5030461;28;20094;-38
2022/01/10 02:48:44;;;;;;;10.32;2.13;;;2.00;99.90;;;1.26;100.00;96756.56;5023856;28;20417;-39
2022/01/10 02:51:10;;;;;;;6.13;2.08;;;2.00;99.90;;;1.31;100.00;96761.69;5027422;28;20033;-39
2022/01/10 02:53:35;;;;;;;8.10;2.25;;;2.10;99.90;;;1.32;100.00;96758.25;5036593;28;20113;-37
2022/01/10 02:56:01;;;;;;;4.50;1.80;;;2.10;99.90;;;1.39;100.00;96772.88;5039291;28;20399;-36
2022/01/10 02:58:27;;;;;;;8.00;2.10;;;2.20;99.90;;;1.42;100.00;96771.97;5045611;28;20052;-38
2022/01/10 03:00:53;;;;;;;5.43;2.30;;;2.20;99.90;;;1.45;100.00;96784.94;5041344;28;20033;-38
2022/01/10 03:03:18;;;;;;;5.57;2.10;;;2.20;99.90;;;1.46;100.00;96787.53;5043231;28;20550;-40
2022/01/10 03:05:44;;;;;;;3.50;1.67;;;2.20;99.90;;;1.46;100.00;96789.28;5044583;28;20720;-40
2022/01/10 03:08:10;;;;;;;5.78;2.20;;;2.20;99.90;;;1.46;100.00;96779.72;5042834;28;20134;-40
2022/01/10 03:10:36;;;;;;;3.67;2.10;;;2.20;99.90;;;1.45;100.00;96795.34;5035344;28;20028;-40
2022/01/10 03:13:02;;;;;;;6.85;2.13;;;2.20;99.90;;;1.40;100.00;96803.19;5033939;28;20868;-38
2022/01/10 03:15:29;;;;;;;4.10;1.83;;;2.20;99.90;;;1.34;100.00;96798.03;5034509;28;20032;-38
2022/01/10 03:17:55;;;;;;;2.42;1.73;;;2.20;99.90;;;1.32;100.00;96808.44;5035238;28;20410;-38
2022/01/10 03:20:23;;;;;;;6.40;2.00;;;2.20;99.90;;;1.37;100.00;96811.00;5034761;28;20453;-37
2022/01/10 03:22:50;;;;;;;5.50;2.28;;;2.10;99.90;;;1.36;100.00;96811.03;5034026;28;20028;-37
2022/01/10 03:25:16;;;;;;;8.88;2.40;;;2.20;99.90;;;1.46;100.00;96821.31;5036129;28;20366;-39
2022/01/10 03:27:42;;;;;;;4.45;2.20;;;2.20;99.90;;;1.48;100.00;96832.53;5042458;28;20116;-38
2022/01/10 03:30:10;;;;;;;6.00;3.03;;;2.30;99.90;;;1.46;100.00;96836.91;5037384;28;20082;-38
2022/01/10 03:32:37;;;;;;;3.42;2.03;;;2.30;99.90;;;1.47;100.00;96837.75;5032763;28;20032;-39
2022/01/10 03:35:04;;;;;;;4.85;2.10;;;2.30;99.90;;;1.50;100.00;96835.13;5034302;28;20494;-37
2022/01/10 03:37:30;;;;;;;3.95;1.90;;;2.30;99.90;;;1.39;100.00;96819.66;5035360;28;20033;-39
2022/01/10 03:39:55;;;;;;;4.22;1.90;;;2.30;99.90;;;1.55;100.00;96838.56;5034244;28;20025;-39
2022/01/10 03:42:21;;;;;;;5.38;2.28;;;2.30;99.90;;;1.57;100.00;96839.38;5032083;28;20029;-40
2022/01/10 03:44:47;;;;;;;8.02;2.58;;;2.30;99.90;;;1.51;100.00;96842.06;5034363;28;20086;-40
2022/01/10 03:47:13;;;;;;;4.28;2.05;;;2.30;99.90;;;1.58;100.00;96848.03;5034937;28;20090;-37
2022/01/10 03:49:39;;;;;;;5.30;2.20;;;2.30;99.90;;;1.61;100.00;96848.00;5033667;28;20044;-36
2022/01/10 03:52:05;;;;;;;7.10;2.38;;;2.40;99.90;;;1.54;100.00;96847.22;5032607;28;20852;-39
2022/01/10 03:54:31;;;;;;;8.73;2.50;;;2.40;99.90;;;1.40;100.00;96851.69;5034666;28;20063;-38
2022/01/10 03:56:56;;;;;;;3.55;2.17;;;2.30;99.90;;;1.37;100.00;96855.19;5034542;28;20124;-37
2022/01/10 03:59:22;;;;;;;5.95;2.20;;;2.30;99.90;;;1.30;100.00;96858.72;5031130;28;20033;-40
2022/01/10 04:01:50;;;;;;;4.07;2.17;;;2.20;99.90;;;1.29;100.00;96860.47;5030784;28;20025;-39
2022/01/10 04:04:17;;;;;;;4.32;1.70;;;2.20;99.90;;;1.31;100.00;96861.31;5035028;28;20144;-38
2022/01/10 04:06:43;;;;;;;4.03;1.63;;;2.20;99.90;;;1.25;100.00;96856.16;5049966;22;22902;-40
2022/01/10 04:09:09;;;;;;;7.25;2.50;;;2.10;99.90;;;1.16;100.00;96861.41;5020242;28;20052;-45
2022/01/10 04:11:35;;;;;;;4.75;2.28;;;2.10;99.90;;;1.14;100.00;96865.78;5017031;28;20033;-45
2022/01/10 04:14:02;;;;;;;3.50;1.92;;;2.00;99.90;;;1.13;100.00;96861.44;5021947;28;20086;-46
2022/01/10 04:16:28;;;;;;;4.68;2.20;;;2.00;99.90;;;1.11;100.00;96864.06;5016684;28;20060;-40
2022/01/10 04:18:53;;;;;;;7.28;1.85;;;2.00;99.90;;;1.13;100.00;96864.03;5017737;28;20036;-48
2022/01/10 04:21:20;;;;;;;4.15;2.13;;;2.00;99.90;;;1.07;100.00;96877.94;5017821;28;20039;-43
2022/01/10 04:23:46;;;;;;;3.03;2.00;;;2.00;99.90;;;0.97;100.00;96873.72;4997833;28;20040;-45
2022/01/10 04:26:11;;;;;;;6.72;2.72;;;1.90;99.90;;;1.04;100.00;96887.50;5014570;28;20038;-42
2022/01/10 04:28:37;;;;;;;3.67;2.08;;;1.90;99.90;;;0.90;100.00;96875.47;5021392;28;20585;-42
2022/01/10 04:31:05;;;;;;;6.10;2.47;;;1.90;99.90;;;0.93;100.00;96885.84;5016350;28;20542;-44
2022/01/10 04:33:31;;;;;;;10.52;2.60;;;1.90;99.90;;;0.98;100.00;96898.78;5014318;28;20028;-40
2022/01/10 04:35:58;;;;;;;7.90;2.97;;;1.90;99.90;;;0.98;100.00;96903.97;5019717;28;20033;-43
2022/01/10 04:38:25;;;;;;;5.18;2.83;;;1.90;99.90;;;0.94;100.00;96892.75;5016329;28;20036;-42
2022/01/10 04:40:51;;;;;;;7.35;3.55;;;1.90;99.90;;;0.95;100.00;96904.00;5019912;28;20041;-43
2022/01/10 04:43:16;;;;;;;8.18;3.70;;;1.90;99.90;;;0.97;100.00;96907.47;5017517;28;20121;-44
2022/01/10 04:45:42;;;;;;;7.32;3.67;;;1.90;99.90;;;0.97;100.00;96909.19;5017902;28;20152;-41
2022/01/10 04:48:08;;;;;;;10.68;4.40;;;1.90;99.90;;;1.00;100.00;96915.22;5020329;28;20060;-43
2022/01/10 04:53:07;;;;;;;8.98;4.70;;;1.90;99.90;;;1.04;100.00;96918.66;5020042;28;20045;-41
2022/01/10 04:55:32;;;;;;;9.38;4.43;;;1.90;99.90;;;1.08;100.00;96921.22;5016031;28;20084;-42
2022/01/10 04:57:58;;;;;;;11.90;5.00;;;1.90;99.90;;;1.08;100.00;96933.34;5020717;28;20037;-41
2022/01/10 05:00:25;;;;;;;10.48;5.15;;;1.90;99.90;;;1.05;100.00;96930.78;5018370;28;20037;-42
2022/01/10 05:02:52;;;;;;;9.77;5.28;;;2.00;99.90;;;1.09;100.00;96938.50;4994001;28;20053;-38
2022/01/10 05:05:17;;;;;;;11.27;5.85;;;2.00;99.90;;;1.03;100.00;96943.75;5015573;28;20765;-44
2022/01/10 05:07:43;;;;;;;11.55;5.80;;;1.90;99.90;;;1.04;100.00;96947.22;5021554;28;20039;-41
2022/01/10 05:10:10;;;;;;;9.63;5.38;;;1.90;99.90;;;1.05;100.00;96946.34;5021024;28;20064;-42
2022/01/10 05:12:36;;;;;;;16.88;6.38;;;1.90;99.90;;;1.11;100.00;96952.38;5018569;28;20116;-41
2022/01/10 05:15:04;;;;;;;8.45;5.10;;;1.90;99.90;;;1.17;100.00;96954.06;5013254;28;20031;-43
2022/01/10 05:17:29;;;;;;;11.15;5.45;;;2.00;99.90;;;1.21;100.00;96955.75;5017206;28;20029;-38
2022/01/10 05:19:55;;;;;;;12.32;5.97;;;2.00;99.90;;;1.19;100.00;96957.50;5017642;28;21314;-44
2022/01/10 05:22:21;;;;;;;14.60;5.93;;;2.10;99.90;;;1.17;100.00;96972.25;5011867;28;20488;-43
2022/01/10 05:24:47;;;;;;;12.88;6.50;;;2.00;99.90;;;1.14;100.00;96972.25;5017586;28;20244;-46
2022/01/10 05:27:12;;;;;;;12.80;6.47;;;2.00;99.90;;;1.16;100.00;96978.31;4999429;28;20037;-43
2022/01/10 05:29:38;;;;;;;17.30;7.05;;;2.00;99.90;;;1.11;100.00;96972.28;5019103;28;20026;-39
2022/01/10 05:32:04;;;;;;;14.40;6.53;;;2.00;99.90;;;1.20;100.00;96985.19;5018781;28;20034;-40
2022/01/10 05:34:30;;;;;;;11.40;7.05;;;2.00;99.90;;;1.25;100.00;96987.78;5021115;28;20041;-43
2022/01/10 05:36:56;;;;;;;14.85;6.40;;;2.10;99.90;;;1.24;100.00;96989.53;5018165;28;20476;-43
2022/01/10 05:39:21;;;;;;;13.65;7.20;;;2.10;99.90;;;1.33;100.00;96997.25;5021993;28;20079;-41
2022/01/10 05:41:47;;;;;;;14.23;6.95;;;2.10;99.90;;;1.36;100.00;97003.28;5021036;28;20037;-40
2022/01/10 05:44:13;;;;;;;13.93;6.60;;;2.20;99.90;;;1.14;100.00;96967.06;5019125;28;20121;-41
2022/01/10 05:46:43;;;;;;;12.38;6.88;;;2.20;99.90;;;1.43;100.00;97003.22;5014353;28;20071;-43
2022/01/10 05:49:12;;;;;;;13.40;7.57;;;2.20;99.90;;;1.49;100.00;97015.31;5017993;28;20033;-41
2022/01/10 05:51:38;;;;;;;16.60;7.78;;;2.30;99.90;;;1.49;100.00;97004.91;5008073;28;20037;-42
2022/01/10 05:54:06;;;;;;;15.38;7.43;;;2.30;99.90;;;1.56;100.00;97017.00;5012379;28;20033;-42
2022/01/10 05:56:33;;;;;;;15.48;6.97;;;2.40;99.90;;;1.60;100.00;97023.03;5012673;28;20520;-42
2022/01/10 05:59:01;;;;;;;13.73;7.40;;;2.40;99.90;;;1.60;100.00;97034.31;5018259;28;20041;-44
2022/01/10 06:01:27;;;;;;;15.90;7.68;;;2.40;99.90;;;1.67;100.00;97043.78;5012171;28;20517;-40
2022/01/10 06:03:53;;;;;;;14.95;7.80;;;2.50;99.90;;;1.64;100.00;97041.19;5017715;28;20040;-44
2022/01/10 06:06:19;;;;;;;14.13;7.28;;;2.50;99.90;;;1.68;100.00;97049.84;5016939;28;20040;-41
2022/01/10 06:08:45;;;;;;;13.55;7.80;;;2.50;99.90;;;1.63;100.00;97054.19;5018631;28;20116;-41
2022/01/10 06:11:11;;;;;;;12.30;7.43;;;2.50;99.90;;;1.60;100.00;97043.81;5023313;28;20045;-43
2022/01/10 06:13:37;;;;;;;16.00;7.70;;;2.50;99.90;;;1.62;100.00;97061.16;5015248;28;20136;-43
2022/01/10 06:16:04;;;;;;;19.50;7.63;;;2.40;99.90;;;1.63;100.00;97057.66;5018008;28;20112;-45
2022/01/10 06:18:30;;;;;;;17.98;8.65;;;2.50;99.90;;;1.61;100.00;97064.59;5019830;28;20029;-43
2022/01/10 06:20:55;;;;;;;18.42;7.97;;;2.50;99.90;;;1.43;100.00;97067.34;5016503;28;20033;-41
2022/01/10 06:23:22;;;;;;;22.98;7.75;;;2.40;99.90;;;1.53;100.00;97082.88;5020245;28;20076;-40
2022/01/10 06:25:48;;;;;;;13.20;7.32;;;2.40;99.90;;;1.53;100.00;97087.22;5020312;28;20030;-44
2022/01/10 06:28:15;;;;;;;18.45;7.72;;;2.40;99.90;;;1.58;100.00;97093.25;5021283;28;20028;-44
2022/01/10 06:30:41;;;;;;;13.52;7.30;;;2.40;99.90;;;1.51;100.00;97099.34;5018135;28;20554;-44
2022/01/10 06:33:07;;;;;;;17.20;7.57;;;2.40;99.90;;;1.47;100.00;97108.00;5022697;28;20088;-41
2022/01/10 06:35:33;;;;;;;16.02;8.25;;;2.40;99.90;;;1.34;100.00;97102.03;5024470;28;20033;-43
2022/01/10 06:37:59;;;;;;;18.52;8.60;;;2.30;99.90;;;1.35;100.00;97114.16;5020532;28;20026;-43
2022/01/10 06:40:24;;;;;;;20.13;7.82;;;2.30;99.90;;;1.39;100.00;97112.41;5025225;28;20045;-44
2022/01/10 06:42:50;;;;;;;20.77;9.93;;;2.30;99.90;;;1.31;100.00;97121.09;5027655;28;20041;-46
2022/01/10 06:45:16;;;;;;;15.68;9.02;;;2.20;99.90;;;1.41;100.00;97126.25;5025576;28;20044;-45
2022/01/10 06:47:42;;;;;;;18.10;7.55;;;2.30;99.90;;;1.41;100.00;97126.25;5026278;28;20375;-42
2022/01/10 06:50:09;;;;;;;10.63;6.45;;;2.30;99.90;;;1.39;100.00;97130.59;5023269;28;20025;-43
2022/01/10 06:52:35;;;;;;;16.95;8.38;;;2.30;99.90;;;1.48;100.00;97141.78;5023065;28;20541;-44
2022/01/10 06:55:01;;;;;;;18.13;9.65;;;2.30;99.90;;;1.37;100.00;97146.19;5023231;28;20156;-43
2022/01/10 06:57:27;;;;;;;21.63;10.90;;;2.30;99.90;;;1.27;100.00;97145.34;5017806;28;20033;-41
2022/01/10 06:59:53;;;;;;;23.20;12.23;;;2.20;99.90;;;1.22;100.00;97154.94;5022335;28;20029;-41
2022/01/10 07:02:19;;;;;;;26.45;13.43;;;2.20;99.90;;;1.25;100.00;97157.50;5016465;28;20085;-44
2022/01/10 07:04:45;;;;;;;31.38;13.52;;;2.10;99.90;;;1.22;100.00;97165.31;5016454;28;20478;-44
2022/01/10 07:07:11;;;;;;;27.63;12.70;;;2.10;99.90;;;1.14;100.00;97156.69;5022112;28;20120;-44
2022/01/10 07:09:37;;;;;;;28.70;13.20;;;2.10;99.90;;;1.27;100.00;97170.47;5019452;28;20160;-44
2022/01/10 07:12:04;;;;;;;29.23;12.98;;;2.10;99.90;;;1.21;100.00;97179.16;5021108;28;20037;-46
2022/01/10 07:14:32;;;;;;;27.48;13.52;;;2.10;99.90;;;1.17;100.00;97184.34;5023887;28;20120;-42
2022/01/10 07:16:58;;;;;;;34.53;14.60;;;2.10;99.90;;;1.16;100.00;97185.25;5025269;28;20053;-43
2022/01/10 07:19:24;;;;;;;22.90;12.52;;;2.10;99.90;;;1.15;100.00;97194.78;5028723;28;20127;-39
2022/01/10 07:21:50;;;;;;;27.30;13.32;;;2.10;99.90;;;1.15;100.00;97197.38;5027608;28;20084;-42
2022/01/10 07:24:17;;;;;;;29.83;14.13;;;2.10;99.90;;;1.12;100.00;97197.38;5022492;28;20039;-43
2022/01/10 07:26:43;;;;;;;31.13;14.52;;;2.00;99.90;;;1.21;100.00;97209.47;5020961;28;20105;-43
2022/01/10 07:29:11;;;;;;;28.88;13.85;;;2.00;99.90;;;1.19;100.00;97224.22;5024100;28;20064;-42
2022/01/10 07:31:38;;;;;;;28.15;13.20;;;2.10;99.90;;;1.20;100.00;97224.19;5023725;28;20048;-43
2022/01/10 07:34:07;;;;;;;32.83;14.23;;;2.10;99.90;;;1.30;100.00;97231.09;5025519;28;20057;-44
2022/01/10 07:36:32;;;;;;;35.92;16.27;;;2.20;99.90;;;1.23;100.00;97237.16;5026296;28;20120;-42
2022/01/10 07:38:58;;;;;;;31.00;14.52;;;2.20;99.90;;;1.25;100.00;97248.41;5026215;28;20040;-40
2022/01/10 07:41:24;;;;;;;23.60;13.20;;;2.20;99.90;;;1.25;100.00;97253.63;5010555;28;20033;-45
2022/01/10 07:43:50;;;;;;;30.02;14.57;;;2.20;99.90;;;1.25;100.00;97265.75;5021606;28;20384;-43
2022/01/10 07:46:17;;;;;;;25.60;12.95;;;2.10;99.90;;;1.27;100.00;97251.88;5021567;28;20238;-41
2022/01/10 07:48:44;;;;;;;27.63;13.55;;;2.20;99.90;;;1.38;100.00;97250.97;5020711;28;20646;-43
2022/01/10 07:51:11;;;;;;;24.00;12.93;;;2.30;99.90;;;1.32;100.00;97254.47;5022675;28;20160;-41
2022/01/10 07:53:38;;;;;;;25.42;13.30;;;2.30;99.90;;;1.30;100.00;97272.66;5022672;28;20082;-39
2022/01/10 07:56:05;;;;;;;26.38;13.55;;;2.30;99.90;;;1.23;100.00;97260.56;5021750;28;20457;-42
2022/01/10 07:58:31;;;;;;;26.90;12.45;;;2.20;99.90;;;1.35;100.00;97280.44;5022815;28;20546;-43
2022/01/10 08:00:58;;;;;;;22.92;12.80;;;2.20;99.90;;;1.08;100.00;97243.28;5024891;28;20398;-42
2022/01/10 08:03:23;;;;;;;23.95;12.20;;;2.30;99.90;;;1.34;100.00;97289.97;5022755;28;20218;-42
2022/01/10 08:05:49;;;;;;;23.00;11.95;;;2.20;99.90;;;1.55;100.00;97303.78;5024512;28;20033;-46
2022/01/10 08:08:15;;;;;;;20.83;11.40;;;2.30;99.90;;;1.45;100.00;97296.88;5020790;28;20308;-45
2022/01/10 08:10:40;;;;;;;21.75;12.43;;;2.30;99.90;;;1.41;100.00;97301.22;5024433;28;20041;-43
2022/01/10 08:13:07;;;;;;;24.85;12.70;;;2.30;99.90;;;1.41;100.00;97308.16;5021437;28;20091;-44
2022/01/10 08:15:33;;;;;;;28.65;13.50;;;2.30;99.90;;;1.36;100.00;97305.56;5023981;28;20034;-44
2022/01/10 08:17:59;;;;;;;26.30;13.32;;;2.30;99.90;;;1.39;100.00;97315.09;5024795;28;20022;-43
2022/01/10 08:20:25;;;;;;;32.90;13.10;;;2.30;99.90;;;1.49;100.00;97316.78;5021103;28;20036;-44
2022/01/10 08:22:51;;;;;;;25.50;13.13;;;2.30;99.90;;;1.49;100.00;97329.78;5023965;28;20383;-42
2022/01/10 08:25:18;;;;;;;27.50;13.10;;;2.40;99.90;;;1.61;100.00;97323.69;5019647;28;20660;-43
2022/01/10 08:27:44;;;;;;;21.38;11.93;;;2.50;99.90;;;1.71;100.00;97328.88;5020599;28;20040;-45
2022/01/10 08:30:10;;;;;;;32.40;14.20;;;2.50;99.90;;;1.75;100.00;97334.06;5018967;28;20036;-42
2022/01/10 08:32:36;;;;;;;28.38;13.23;;;2.60;99.90;;;1.80;100.00;97330.56;5026382;28;20446;-43
2022/01/10 08:35:03;;;;;;;22.33;12.50;;;2.60;99.90;;;1.90;100.00;97336.59;5026334;28;20116;-39
2022/01/10 08:37:29;;;;;;;28.73;14.13;;;2.70;99.90;;;1.85;100.00;97344.44;5007779;28;20029;-43
2022/01/10 08:39:55;;;;;;;26.83;12.18;;;2.80;99.90;;;1.92;100.00;97342.69;5023333;28;20026;-42
2022/01/10 08:42:22;;;;;;;24.55;12.80;;;2.80;99.90;;;2.08;100.00;97354.75;5025016;28;20033;-43
2022/01/10 08:44:48;;;;;;;26.45;14.23;;;2.80;99.90;;;2.11;100.00;97359.06;5021906;28;20029;-42
2022/01/10 08:47:15;;;;;;;30.02;13.90;;;2.90;99.90;;;2.02;100.00;97365.16;5023893;28;20416;-41
2022/01/10 08:49:42;;;;;;;23.77;13.52;;;2.90;99.90;;;2.10;100.00;97363.41;5020303;28;20041;-45
2022/01/10 08:52:08;;;;;;;22.77;12.88;;;2.90;99.90;;;2.13;100.00;97369.47;5021393;28;20573;-42
2022/01/10 08:54:35;;;;;;;25.80;12.25;;;3.00;99.90;;;2.12;100.00;97372.94;5020373;28;20402;-41
2022/01/10 08:57:02;;;;;;;22.33;13.40;;;3.00;99.90;;;1.98;100.00;97378.22;5002679;28;20044;-42
2022/01/10 08:59:28;;;;;;;28.63;13.88;;;2.90;99.90;;;2.06;100.00;97379.03;5024285;28;20104;-41
2022/01/10 09:01:58;;;;;;;24.95;12.75;;;2.90;99.90;;;2.14;100.00;97382.47;5024405;28;20048;-43
2022/01/10 09:04:24;;;;;;;26.20;13.48;;;2.90;99.90;;;2.15;100.00;97383.34;5023510;28;20033;-42
2022/01/10 09:06:52;;;;;;;34.45;14.82;;;3.00;99.90;;;2.09;100.00;97385.09;5020219;28;20040;-51
2022/01/10 09:09:21;;;;;;;25.50;13.38;;;3.00;99.90;;;2.14;100.00;97394.63;5018605;28;20379;-45
2022/01/10 09:11:47;;;;;;;27.77;13.82;;;3.00;99.90;;;2.20;100.00;97392.00;5020938;28;20099;-44
2022/01/10 09:14:14;;;;;;;23.52;12.90;;;3.00;99.90;;;2.41;100.00;97404.91;5021937;28;20033;-43
2022/01/10 09:16:41;;;;;;;21.85;12.25;;;3.10;99.90;;;2.40;100.00;97403.16;5023530;28;20107;-39
2022/01/10 09:19:07;;;;;;;27.27;14.02;;;3.20;99.90;;;2.44;100.00;97414.44;5021507;28;20036;-45
2022/01/10 09:21:34;;;;;;;22.85;12.90;;;3.20;99.90;;;2.59;100.00;97413.53;5020633;28;20414;-43
2022/01/10 09:24:00;;;;;;;23.60;12.80;;;3.30;99.90;;;2.62;100.00;97416.09;5020225;28;20025;-44
2022/01/10 09:26:26;;;;;;;25.92;13.60;;;3.40;99.90;;;2.52;100.00;97404.88;5021590;28;20523;-43
2022/01/10 09:28:53;;;;;;;33.63;12.68;;;3.50;99.90;;;2.58;100.00;97424.78;5022065;28;20064;-41
2022/01/10 09:31:20;;;;;;;28.15;13.82;;;3.50;99.90;;;2.53;100.00;97424.84;5020145;28;20112;-43
2022/01/10 09:33:52;;;;;;;27.33;13.85;;;3.40;99.90;;;2.59;100.00;97426.53;5018236;28;20032;-41
2022/01/10 09:36:18;;;;;;;23.38;11.85;;;3.40;99.90;;;2.73;100.00;97436.84;5026446;28;20144;-45
2022/01/10 09:38:44;;;;;;;25.83;13.07;;;3.50;99.90;;;2.80;100.00;97436.84;5022247;28;20118;-42
2022/01/10 09:41:09;;;;;;;26.17;13.25;;;3.60;99.90;;;2.66;100.00;97439.50;5016881;28;20025;-42
2022/01/10 09:43:35;;;;;;;27.25;13.95;;;3.60;99.90;;;2.59;100.00;97444.75;5022810;28;20072;-42
2022/01/10 09:46:01;;;;;;;25.73;13.38;;;3.50;99.90;;;2.60;100.00;97451.69;5019061;28;20025;-43
2022/01/10 09:48:27;;;;;;;27.13;13.00;;;3.40;99.90;;;2.64;100.00;97453.44;5023503;28;20506;-42
2022/01/10 09:50:53;;;;;;;24.67;13.57;;;3.40;99.90;;;2.64;100.00;97453.44;5002122;28;20407;-44
2022/01/10 09:53:21;;;;;;;24.70;13.95;;;3.40;99.90;;;2.63;100.00;97462.09;5023129;28;20041;-42
2022/01/10 09:55:48;;;;;;;27.52;14.38;;;3.40;99.90;;;2.50;100.00;97447.41;5020720;28;20048;-42
2022/01/10 09:58:15;;;;;;;22.90;12.45;;;3.40;99.90;;;2.69;100.00;97467.25;5017117;28;20029;-41
2022/01/10 10:00:41;;;;;;;26.33;13.82;;;3.50;99.90;;;2.76;100.00;97471.56;5023286;28;20033;-44
2022/01/10 10:03:07;;;;;;;25.15;13.60;;;3.60;99.90;;;2.92;100.00;97485.38;5016480;28;20025;-42
2022/01/10 10:05:34;;;;;;;28.65;13.75;;;3.70;99.90;;;3.31;100.00;97485.16;5017372;28;20340;-43
2022/01/10 10:08:00;;;;;;;25.67;13.73;;;3.90;99.90;;;3.25;100.00;97453.06;5037739;22;20476;-90
2022/01/10 10:10:28;;;;;;;28.30;14.05;;;4.20;99.90;;;3.45;100.00;97485.94;4996249;28;20045;-89
2022/01/10 10:12:55;;;;;;;26.80;13.07;;;4.30;99.90;;;3.44;100.00;97490.28;4996807;28;20394;-89
2022/01/10 10:15:27;;;;;;;25.48;13.02;;;4.30;99.90;;;3.60;100.00;97485.81;5011741;28;20330;-90
2022/01/10 10:17:53;;;;;;;;;;;4.40;99.90;;;3.77;100.00;97492.66;5003877;28;20474;-90
2022/01/10 10:20:23;;;;;;;18.70;10.43;;;4.50;99.90;;;3.42;100.00;97433.81;5011495;28;19917;-90
2022/01/10 10:22:52;;;;;;;16.92;10.50;;;4.60;99.90;;;3.70;100.00;97472.72;5029457;28;20108;-90
2022/01/10 10:25:19;;;;;;;19.02;11.95;;;4.70;99.90;;;3.76;100.00;97481.34;5007764;28;20116;-89
2022/01/10 10:27:48;;;;;;;28.90;12.45;;;4.70;99.90;;;3.91;100.00;97513.38;5014030;28;20025;-90
2022/01/10 10:30:26;;;;;;;17.90;10.93;;;4.70;99.90;;;3.92;100.00;97507.31;4995928;28;20030;-89
2022/01/10 10:32:52;;;;;;;22.10;13.25;;;4.70;99.90;;;3.87;100.00;97520.38;5012476;28;20596;-89
2022/01/10 10:35:19;;;;;;;23.08;12.48;;;4.70;99.90;;;3.43;100.00;97472.06;5010099;28;20038;-90